sensor_id;sensor_type;location;lat;lon;timestamp;P1;durP1;ratioP1;P2;durP2;ratioP2
11018;SDS011;5563;52.296;6.806;2023-07-20T00:02:20;5.55;;;3.88;;
11018;SDS011;5563;52.296;6.806;2023-07-20T00:04:53;5.88;;;4.07;;
11018;SDS011;5563;52.296;6.806;2023-07-20T00:07:26;4.50;;;4.05;;
11018;SDS011;5563;52.296;6.806;2023-07-20T00:09:59;4.90;;;3.92;;
11018;SDS011;5563;52.296;6.806;2023-07-20T00:12:38;4.53;;;4.13;;
11018;SDS011;5563;52.296;6.806;2023-07-20T00:15:21;4.60;;;4.18;;
11018;SDS011;5563;52.296;6.806;2023-07-20T00:17:48;7.13;;;4.22;;
11018;SDS011;5563;52.296;6.806;2023-07-20T00:20:15;4.38;;;3.97;;
11018;SDS011;5563;52.296;6.806;2023-07-20T00:22:48;6.78;;;4.43;;
11018;SDS011;5563;52.296;6.806;2023-07-20T00:25:18;5.25;;;4.38;;
11018;SDS011;5563;52.296;6.806;2023-07-20T00:30:43;6.22;;;4.95;;
11018;SDS011;5563;52.296;6.806;2023-07-20T00:33:16;5.65;;;5.00;;
11018;SDS011;5563;52.296;6.806;2023-07-20T00:35:49;5.15;;;4.75;;
11018;SDS011;5563;52.296;6.806;2023-07-20T00:38:17;5.82;;;5.15;;
11018;SDS011;5563;52.296;6.806;2023-07-20T00:40:50;6.20;;;5.60;;
11018;SDS011;5563;52.296;6.806;2023-07-20T00:43:24;4.88;;;4.45;;
11018;SDS011;5563;52.296;6.806;2023-07-20T00:45:51;6.40;;;5.80;;
11018;SDS011;5563;52.296;6.806;2023-07-20T00:48:25;6.13;;;5.63;;
11018;SDS011;5563;52.296;6.806;2023-07-20T00:50:52;5.85;;;5.43;;
11018;SDS011;5563;52.296;6.806;2023-07-20T00:53:25;6.60;;;5.97;;
11018;SDS011;5563;52.296;6.806;2023-07-20T00:55:55;6.45;;;5.85;;
11018;SDS011;5563;52.296;6.806;2023-07-20T00:58:29;6.38;;;5.78;;
11018;SDS011;5563;52.296;6.806;2023-07-20T01:00:57;5.93;;;5.43;;
11018;SDS011;5563;52.296;6.806;2023-07-20T01:03:35;6.00;;;5.57;;
11018;SDS011;5563;52.296;6.806;2023-07-20T01:12:02;4.78;;;4.47;;
11018;SDS011;5563;52.296;6.806;2023-07-20T01:14:41;5.72;;;5.15;;
11018;SDS011;5563;52.296;6.806;2023-07-20T01:17:15;5.47;;;5.00;;
11018;SDS011;5563;52.296;6.806;2023-07-20T01:19:53;4.75;;;4.28;;
11018;SDS011;5563;52.296;6.806;2023-07-20T01:25:49;4.53;;;4.13;;
11018;SDS011;5563;52.296;6.806;2023-07-20T01:31:14;5.25;;;4.80;;
11018;SDS011;5563;52.296;6.806;2023-07-20T01:33:52;4.78;;;4.38;;
11018;SDS011;5563;52.296;6.806;2023-07-20T01:36:29;5.55;;;4.90;;
11018;SDS011;5563;52.296;6.806;2023-07-20T01:39:09;5.50;;;5.00;;
11018;SDS011;5563;52.296;6.806;2023-07-20T01:41:44;5.18;;;4.78;;
11018;SDS011;5563;52.296;6.806;2023-07-20T01:44:18;5.85;;;5.35;;
11018;SDS011;5563;52.296;6.806;2023-07-20T01:46:46;5.63;;;5.13;;
11018;SDS011;5563;52.296;6.806;2023-07-20T01:49:21;5.80;;;5.32;;
11018;SDS011;5563;52.296;6.806;2023-07-20T01:51:54;5.60;;;5.18;;
11018;SDS011;5563;52.296;6.806;2023-07-20T01:54:31;5.90;;;5.40;;
11018;SDS011;5563;52.296;6.806;2023-07-20T01:57:08;5.15;;;4.70;;
11018;SDS011;5563;52.296;6.806;2023-07-20T01:59:44;6.07;;;5.57;;
11018;SDS011;5563;52.296;6.806;2023-07-20T02:02:18;5.68;;;5.18;;
11018;SDS011;5563;52.296;6.806;2023-07-20T02:04:58;6.35;;;5.78;;
11018;SDS011;5563;52.296;6.806;2023-07-20T02:07:39;6.05;;;5.55;;
11018;SDS011;5563;52.296;6.806;2023-07-20T02:10:06;6.65;;;6.13;;
11018;SDS011;5563;52.296;6.806;2023-07-20T02:12:39;6.03;;;5.53;;
11018;SDS011;5563;52.296;6.806;2023-07-20T02:15:14;6.13;;;5.63;;
11018;SDS011;5563;52.296;6.806;2023-07-20T02:17:43;6.20;;;5.75;;
11018;SDS011;5563;52.296;6.806;2023-07-20T02:20:16;7.35;;;6.65;;
11018;SDS011;5563;52.296;6.806;2023-07-20T02:22:51;6.65;;;6.15;;
11018;SDS011;5563;52.296;6.806;2023-07-20T02:25:24;6.53;;;6.03;;
11018;SDS011;5563;52.296;6.806;2023-07-20T02:28:01;6.55;;;6.05;;
11018;SDS011;5563;52.296;6.806;2023-07-20T02:30:28;6.15;;;5.65;;
11018;SDS011;5563;52.296;6.806;2023-07-20T02:33:03;7.30;;;6.70;;
11018;SDS011;5563;52.296;6.806;2023-07-20T02:35:40;6.47;;;5.97;;
11018;SDS011;5563;52.296;6.806;2023-07-20T02:38:07;6.70;;;6.07;;
11018;SDS011;5563;52.296;6.806;2023-07-20T02:40:43;7.10;;;6.47;;
11018;SDS011;5563;52.296;6.806;2023-07-20T02:43:19;7.20;;;6.60;;
11018;SDS011;5563;52.296;6.806;2023-07-20T02:45:45;7.13;;;6.53;;
11018;SDS011;5563;52.296;6.806;2023-07-20T02:48:26;6.55;;;6.05;;
11018;SDS011;5563;52.296;6.806;2023-07-20T02:51:00;7.00;;;6.40;;
11018;SDS011;5563;52.296;6.806;2023-07-20T02:53:26;6.10;;;5.68;;
11018;SDS011;5563;52.296;6.806;2023-07-20T02:55:55;7.35;;;6.70;;
11018;SDS011;5563;52.296;6.806;2023-07-20T02:58:28;7.55;;;6.95;;
11018;SDS011;5563;52.296;6.806;2023-07-20T03:00:58;7.25;;;6.65;;
11018;SDS011;5563;52.296;6.806;2023-07-20T03:03:40;6.97;;;6.40;;
11018;SDS011;5563;52.296;6.806;2023-07-20T03:06:23;6.45;;;5.90;;
11018;SDS011;5563;52.296;6.806;2023-07-20T03:09:00;6.85;;;6.22;;
11018;SDS011;5563;52.296;6.806;2023-07-20T03:11:33;6.30;;;5.80;;
11018;SDS011;5563;52.296;6.806;2023-07-20T03:14:11;6.80;;;6.20;;
11018;SDS011;5563;52.296;6.806;2023-07-20T03:16:40;8.35;;;6.30;;
11018;SDS011;5563;52.296;6.806;2023-07-20T03:19:14;6.63;;;5.90;;
11018;SDS011;5563;52.296;6.806;2023-07-20T03:21:41;6.97;;;6.18;;
11018;SDS011;5563;52.296;6.806;2023-07-20T03:24:09;6.70;;;6.10;;
11018;SDS011;5563;52.296;6.806;2023-07-20T03:26:42;5.70;;;5.30;;
11018;SDS011;5563;52.296;6.806;2023-07-20T03:29:15;6.05;;;5.45;;
11018;SDS011;5563;52.296;6.806;2023-07-20T03:31:53;6.30;;;5.80;;
11018;SDS011;5563;52.296;6.806;2023-07-20T03:34:20;5.75;;;5.25;;
11018;SDS011;5563;52.296;6.806;2023-07-20T03:36:54;5.63;;;5.13;;
11018;SDS011;5563;52.296;6.806;2023-07-20T03:39:24;5.70;;;5.20;;
11018;SDS011;5563;52.296;6.806;2023-07-20T03:41:58;5.72;;;5.22;;
11018;SDS011;5563;52.296;6.806;2023-07-20T03:44:25;6.57;;;6.07;;
11018;SDS011;5563;52.296;6.806;2023-07-20T03:46:59;6.15;;;5.63;;
11018;SDS011;5563;52.296;6.806;2023-07-20T03:49:26;6.00;;;5.50;;
11018;SDS011;5563;52.296;6.806;2023-07-20T03:52:00;5.97;;;5.38;;
11018;SDS011;5563;52.296;6.806;2023-07-20T03:54:29;6.35;;;5.80;;
11018;SDS011;5563;52.296;6.806;2023-07-20T03:57:04;5.90;;;5.40;;
11018;SDS011;5563;52.296;6.806;2023-07-20T03:59:31;6.82;;;6.13;;
11018;SDS011;5563;52.296;6.806;2023-07-20T04:02:05;7.03;;;6.32;;
11018;SDS011;5563;52.296;6.806;2023-07-20T04:04:45;6.88;;;6.28;;
11018;SDS011;5563;52.296;6.806;2023-07-20T04:07:19;7.97;;;7.35;;
11018;SDS011;5563;52.296;6.806;2023-07-20T04:09:46;8.23;;;7.45;;
11018;SDS011;5563;52.296;6.806;2023-07-20T04:12:22;8.00;;;7.30;;
11018;SDS011;5563;52.296;6.806;2023-07-20T04:14:58;8.52;;;7.72;;
11018;SDS011;5563;52.296;6.806;2023-07-20T04:17:29;8.50;;;7.70;;
11018;SDS011;5563;52.296;6.806;2023-07-20T04:20:03;8.73;;;7.85;;
11018;SDS011;5563;52.296;6.806;2023-07-20T04:22:42;8.85;;;8.10;;
11018;SDS011;5563;52.296;6.806;2023-07-20T04:25:18;8.48;;;7.70;;
11018;SDS011;5563;52.296;6.806;2023-07-20T04:27:46;8.40;;;7.70;;
11018;SDS011;5563;52.296;6.806;2023-07-20T04:30:20;8.35;;;7.63;;
11018;SDS011;5563;52.296;6.806;2023-07-20T04:32:49;8.85;;;8.02;;
11018;SDS011;5563;52.296;6.806;2023-07-20T04:38:19;9.20;;;8.43;;
11018;SDS011;5563;52.296;6.806;2023-07-20T04:40:53;8.57;;;7.78;;
11018;SDS011;5563;52.296;6.806;2023-07-20T04:43:28;8.95;;;8.05;;
11018;SDS011;5563;52.296;6.806;2023-07-20T04:46:02;8.77;;;7.97;;
11018;SDS011;5563;52.296;6.806;2023-07-20T04:48:30;8.90;;;8.00;;
11018;SDS011;5563;52.296;6.806;2023-07-20T04:51:04;9.23;;;8.38;;
11018;SDS011;5563;52.296;6.806;2023-07-20T04:53:31;8.80;;;7.90;;
11018;SDS011;5563;52.296;6.806;2023-07-20T04:55:58;8.88;;;8.15;;
11018;SDS011;5563;52.296;6.806;2023-07-20T04:58:31;9.18;;;8.30;;
11018;SDS011;5563;52.296;6.806;2023-07-20T05:00:59;9.43;;;8.38;;
11018;SDS011;5563;52.296;6.806;2023-07-20T05:03:34;9.30;;;8.38;;
11018;SDS011;5563;52.296;6.806;2023-07-20T05:06:15;9.27;;;8.38;;
11018;SDS011;5563;52.296;6.806;2023-07-20T05:08:49;8.70;;;8.00;;
11018;SDS011;5563;52.296;6.806;2023-07-20T05:11:16;9.25;;;8.45;;
11018;SDS011;5563;52.296;6.806;2023-07-20T05:13:49;9.02;;;8.23;;
11018;SDS011;5563;52.296;6.806;2023-07-20T05:16:24;8.80;;;8.00;;
11018;SDS011;5563;52.296;6.806;2023-07-20T05:18:58;7.88;;;7.07;;
11018;SDS011;5563;52.296;6.806;2023-07-20T05:21:32;10.05;;;9.15;;
11018;SDS011;5563;52.296;6.806;2023-07-20T05:24:08;9.23;;;8.43;;
11018;SDS011;5563;52.296;6.806;2023-07-20T05:26:45;8.95;;;8.05;;
11018;SDS011;5563;52.296;6.806;2023-07-20T05:29:12;8.73;;;7.78;;
11018;SDS011;5563;52.296;6.806;2023-07-20T05:31:46;9.05;;;8.25;;
11018;SDS011;5563;52.296;6.806;2023-07-20T05:34:13;8.45;;;7.75;;
11018;SDS011;5563;52.296;6.806;2023-07-20T05:36:47;9.27;;;8.38;;
11018;SDS011;5563;52.296;6.806;2023-07-20T05:39:31;8.32;;;7.63;;
11018;SDS011;5563;52.296;6.806;2023-07-20T05:42:19;7.72;;;7.03;;
11018;SDS011;5563;52.296;6.806;2023-07-20T05:44:46;8.55;;;7.75;;
11018;SDS011;5563;52.296;6.806;2023-07-20T05:47:28;8.10;;;7.30;;
11018;SDS011;5563;52.296;6.806;2023-07-20T05:49:57;8.10;;;7.50;;
11018;SDS011;5563;52.296;6.806;2023-07-20T05:52:34;7.53;;;6.93;;
11018;SDS011;5563;52.296;6.806;2023-07-20T05:55:08;7.50;;;6.68;;
11018;SDS011;5563;52.296;6.806;2023-07-20T05:57:43;8.57;;;7.75;;
11018;SDS011;5563;52.296;6.806;2023-07-20T06:00:13;7.88;;;7.28;;
11018;SDS011;5563;52.296;6.806;2023-07-20T06:02:47;7.88;;;7.18;;
11018;SDS011;5563;52.296;6.806;2023-07-20T06:05:19;8.00;;;7.30;;
11018;SDS011;5563;52.296;6.806;2023-07-20T06:07:59;7.57;;;6.88;;
11018;SDS011;5563;52.296;6.806;2023-07-20T06:10:27;7.75;;;7.05;;
11018;SDS011;5563;52.296;6.806;2023-07-20T06:13:01;7.18;;;5.85;;
11018;SDS011;5563;52.296;6.806;2023-07-20T06:15:32;7.63;;;6.93;;
11018;SDS011;5563;52.296;6.806;2023-07-20T06:18:09;7.47;;;6.82;;
11018;SDS011;5563;52.296;6.806;2023-07-20T06:20:48;7.00;;;6.40;;
11018;SDS011;5563;52.296;6.806;2023-07-20T06:23:20;7.05;;;6.45;;
11018;SDS011;5563;52.296;6.806;2023-07-20T06:25:54;6.68;;;6.07;;
11018;SDS011;5563;52.296;6.806;2023-07-20T06:28:21;6.95;;;6.15;;
11018;SDS011;5563;52.296;6.806;2023-07-20T06:31:01;6.60;;;6.05;;
11018;SDS011;5563;52.296;6.806;2023-07-20T06:33:39;5.57;;;5.15;;
11018;SDS011;5563;52.296;6.806;2023-07-20T06:36:10;6.70;;;6.07;;
11018;SDS011;5563;52.296;6.806;2023-07-20T06:38:43;5.28;;;4.88;;
11018;SDS011;5563;52.296;6.806;2023-07-20T06:41:20;5.40;;;5.00;;
11018;SDS011;5563;52.296;6.806;2023-07-20T06:43:50;5.35;;;4.88;;
11018;SDS011;5563;52.296;6.806;2023-07-20T06:46:31;5.43;;;4.93;;
11018;SDS011;5563;52.296;6.806;2023-07-20T06:48:58;5.90;;;5.30;;
11018;SDS011;5563;52.296;6.806;2023-07-20T06:51:33;5.07;;;4.68;;
11018;SDS011;5563;52.296;6.806;2023-07-20T06:54:03;5.28;;;4.75;;
11018;SDS011;5563;52.296;6.806;2023-07-20T06:56:37;5.05;;;4.55;;
11018;SDS011;5563;52.296;6.806;2023-07-20T06:59:11;4.93;;;4.32;;
11018;SDS011;5563;52.296;6.806;2023-07-20T07:01:45;5.00;;;4.32;;
11018;SDS011;5563;52.296;6.806;2023-07-20T07:04:18;5.32;;;4.82;;
11018;SDS011;5563;52.296;6.806;2023-07-20T07:06:59;14.13;;;11.30;;
11018;SDS011;5563;52.296;6.806;2023-07-20T07:09:32;4.70;;;4.30;;
11018;SDS011;5563;52.296;6.806;2023-07-20T07:12:06;3.58;;;3.28;;
11018;SDS011;5563;52.296;6.806;2023-07-20T07:14:40;4.40;;;3.65;;
11018;SDS011;5563;52.296;6.806;2023-07-20T07:17:09;3.53;;;3.20;;
11018;SDS011;5563;52.296;6.806;2023-07-20T07:19:45;3.60;;;3.10;;
11018;SDS011;5563;52.296;6.806;2023-07-20T07:22:15;3.42;;;2.95;;
11018;SDS011;5563;52.296;6.806;2023-07-20T07:24:51;3.08;;;2.42;;
11018;SDS011;5563;52.296;6.806;2023-07-20T07:27:18;3.95;;;2.35;;
11018;SDS011;5563;52.296;6.806;2023-07-20T07:29:54;2.10;;;1.83;;
11018;SDS011;5563;52.296;6.806;2023-07-20T07:32:21;2.50;;;2.30;;
11018;SDS011;5563;52.296;6.806;2023-07-20T07:34:55;3.28;;;2.40;;
11018;SDS011;5563;52.296;6.806;2023-07-20T07:37:22;2.40;;;2.20;;
11018;SDS011;5563;52.296;6.806;2023-07-20T07:40:01;1.73;;;1.63;;
11018;SDS011;5563;52.296;6.806;2023-07-20T07:42:29;2.90;;;1.73;;
11018;SDS011;5563;52.296;6.806;2023-07-20T07:45:08;2.40;;;1.58;;
11018;SDS011;5563;52.296;6.806;2023-07-20T07:47:47;2.20;;;2.00;;
11018;SDS011;5563;52.296;6.806;2023-07-20T07:50:23;2.10;;;2.00;;
11018;SDS011;5563;52.296;6.806;2023-07-20T07:52:50;2.13;;;1.55;;
11018;SDS011;5563;52.296;6.806;2023-07-20T07:55:27;2.95;;;1.73;;
11018;SDS011;5563;52.296;6.806;2023-07-20T07:58:01;2.05;;;1.50;;
11018;SDS011;5563;52.296;6.806;2023-07-20T08:00:30;3.25;;;1.60;;
11018;SDS011;5563;52.296;6.806;2023-07-20T08:03:05;1.70;;;1.40;;
11018;SDS011;5563;52.296;6.806;2023-07-20T08:05:39;1.60;;;1.38;;
11018;SDS011;5563;52.296;6.806;2023-07-20T08:08:13;3.95;;;3.58;;
11018;SDS011;5563;52.296;6.806;2023-07-20T08:10:39;2.05;;;1.63;;
11018;SDS011;5563;52.296;6.806;2023-07-20T08:13:13;1.92;;;1.73;;
11018;SDS011;5563;52.296;6.806;2023-07-20T08:15:45;1.40;;;1.30;;
11018;SDS011;5563;52.296;6.806;2023-07-20T08:18:24;2.00;;;1.30;;
11018;SDS011;5563;52.296;6.806;2023-07-20T08:20:51;2.05;;;1.50;;
11018;SDS011;5563;52.296;6.806;2023-07-20T08:23:25;2.10;;;1.90;;
11018;SDS011;5563;52.296;6.806;2023-07-20T08:26:00;1.90;;;1.42;;
11018;SDS011;5563;52.296;6.806;2023-07-20T08:28:36;2.30;;;1.20;;
11018;SDS011;5563;52.296;6.806;2023-07-20T08:31:05;1.77;;;1.33;;
11018;SDS011;5563;52.296;6.806;2023-07-20T08:33:39;2.55;;;1.45;;
11018;SDS011;5563;52.296;6.806;2023-07-20T08:36:13;1.45;;;1.20;;
11018;SDS011;5563;52.296;6.806;2023-07-20T08:38:40;2.55;;;1.50;;
11018;SDS011;5563;52.296;6.806;2023-07-20T08:41:13;1.77;;;1.35;;
11018;SDS011;5563;52.296;6.806;2023-07-20T08:43:40;3.47;;;1.55;;
11018;SDS011;5563;52.296;6.806;2023-07-20T08:46:17;17.50;;;15.30;;
11018;SDS011;5563;52.296;6.806;2023-07-20T08:48:44;7.25;;;6.55;;
11018;SDS011;5563;52.296;6.806;2023-07-20T08:51:18;2.88;;;1.80;;
11018;SDS011;5563;52.296;6.806;2023-07-20T08:53:47;1.20;;;1.10;;
11018;SDS011;5563;52.296;6.806;2023-07-20T08:56:25;1.20;;;1.10;;
11018;SDS011;5563;52.296;6.806;2023-07-20T08:58:53;1.38;;;1.13;;
11018;SDS011;5563;52.296;6.806;2023-07-20T09:01:34;1.25;;;1.15;;
11018;SDS011;5563;52.296;6.806;2023-07-20T09:04:02;3.00;;;1.00;;
11018;SDS011;5563;52.296;6.806;2023-07-20T09:06:42;1.10;;;1.10;;
11018;SDS011;5563;52.296;6.806;2023-07-20T09:09:11;1.65;;;1.30;;
11018;SDS011;5563;52.296;6.806;2023-07-20T09:11:47;1.40;;;1.00;;
11018;SDS011;5563;52.296;6.806;2023-07-20T09:14:15;2.08;;;1.13;;
11018;SDS011;5563;52.296;6.806;2023-07-20T09:16:55;1.58;;;1.20;;
11018;SDS011;5563;52.296;6.806;2023-07-20T09:19:29;1.55;;;1.15;;
11018;SDS011;5563;52.296;6.806;2023-07-20T09:21:55;1.80;;;1.20;;
11018;SDS011;5563;52.296;6.806;2023-07-20T09:24:29;1.45;;;1.20;;
11018;SDS011;5563;52.296;6.806;2023-07-20T09:26:55;1.48;;;1.25;;
11018;SDS011;5563;52.296;6.806;2023-07-20T09:29:29;5.63;;;4.68;;
11018;SDS011;5563;52.296;6.806;2023-07-20T09:32:00;3.67;;;3.15;;
11018;SDS011;5563;52.296;6.806;2023-07-20T09:34:49;2.25;;;1.40;;
11018;SDS011;5563;52.296;6.806;2023-07-20T09:37:48;1.40;;;1.30;;
11018;SDS011;5563;52.296;6.806;2023-07-20T09:40:28;1.38;;;1.10;;
11018;SDS011;5563;52.296;6.806;2023-07-20T09:43:07;1.40;;;1.23;;
11018;SDS011;5563;52.296;6.806;2023-07-20T09:45:44;1.75;;;1.17;;
11018;SDS011;5563;52.296;6.806;2023-07-20T09:48:14;3.42;;;1.35;;
11018;SDS011;5563;52.296;6.806;2023-07-20T09:50:51;1.20;;;1.10;;
11018;SDS011;5563;52.296;6.806;2023-07-20T09:53:18;1.00;;;1.00;;
11018;SDS011;5563;52.296;6.806;2023-07-20T09:55:53;1.95;;;1.10;;
11018;SDS011;5563;52.296;6.806;2023-07-20T09:58:21;1.20;;;1.10;;
11018;SDS011;5563;52.296;6.806;2023-07-20T10:00:56;1.23;;;0.98;;
11018;SDS011;5563;52.296;6.806;2023-07-20T10:03:28;1.02;;;1.00;;
11018;SDS011;5563;52.296;6.806;2023-07-20T10:06:05;1.40;;;1.30;;
11018;SDS011;5563;52.296;6.806;2023-07-20T10:08:41;1.48;;;1.13;;
11018;SDS011;5563;52.296;6.806;2023-07-20T10:11:18;1.45;;;1.02;;
11018;SDS011;5563;52.296;6.806;2023-07-20T10:13:49;0.90;;;0.90;;
11018;SDS011;5563;52.296;6.806;2023-07-20T10:16:27;1.60;;;1.17;;
11018;SDS011;5563;52.296;6.806;2023-07-20T10:21:46;1.33;;;1.00;;
11018;SDS011;5563;52.296;6.806;2023-07-20T10:24:24;1.30;;;0.93;;
11018;SDS011;5563;52.296;6.806;2023-07-20T10:26:53;1.23;;;0.90;;
11018;SDS011;5563;52.296;6.806;2023-07-20T10:29:27;0.98;;;0.98;;
11018;SDS011;5563;52.296;6.806;2023-07-20T10:31:56;0.98;;;0.90;;
11018;SDS011;5563;52.296;6.806;2023-07-20T10:34:30;1.83;;;0.90;;
11018;SDS011;5563;52.296;6.806;2023-07-20T10:36:57;0.70;;;0.70;;
11018;SDS011;5563;52.296;6.806;2023-07-20T10:39:31;1.70;;;0.90;;
11018;SDS011;5563;52.296;6.806;2023-07-20T10:41:59;1.67;;;1.13;;
11018;SDS011;5563;52.296;6.806;2023-07-20T10:44:41;6.93;;;6.35;;
11018;SDS011;5563;52.296;6.806;2023-07-20T10:47:09;1.55;;;1.45;;
11018;SDS011;5563;52.296;6.806;2023-07-20T10:49:57;0.70;;;0.70;;
11018;SDS011;5563;52.296;6.806;2023-07-20T10:52:36;1.35;;;0.95;;
11018;SDS011;5563;52.296;6.806;2023-07-20T10:55:13;1.15;;;1.00;;
11018;SDS011;5563;52.296;6.806;2023-07-20T10:57:41;0.85;;;0.85;;
11018;SDS011;5563;52.296;6.806;2023-07-20T11:00:18;1.73;;;0.95;;
11018;SDS011;5563;52.296;6.806;2023-07-20T11:02:46;1.15;;;1.00;;
11018;SDS011;5563;52.296;6.806;2023-07-20T11:08:10;0.98;;;0.80;;
11018;SDS011;5563;52.296;6.806;2023-07-20T11:10:45;1.63;;;1.00;;
11018;SDS011;5563;52.296;6.806;2023-07-20T11:13:21;0.80;;;0.80;;
11018;SDS011;5563;52.296;6.806;2023-07-20T11:18:30;1.33;;;0.88;;
11018;SDS011;5563;52.296;6.806;2023-07-20T11:21:00;2.70;;;1.30;;
11018;SDS011;5563;52.296;6.806;2023-07-20T11:23:35;1.40;;;1.10;;
11018;SDS011;5563;52.296;6.806;2023-07-20T11:26:11;1.75;;;1.23;;
11018;SDS011;5563;52.296;6.806;2023-07-20T11:28:38;2.60;;;1.10;;
11018;SDS011;5563;52.296;6.806;2023-07-20T11:31:05;0.98;;;0.90;;
11018;SDS011;5563;52.296;6.806;2023-07-20T11:33:39;1.55;;;1.08;;
11018;SDS011;5563;52.296;6.806;2023-07-20T11:36:06;1.20;;;1.10;;
11018;SDS011;5563;52.296;6.806;2023-07-20T11:38:44;1.10;;;1.00;;
11018;SDS011;5563;52.296;6.806;2023-07-20T11:41:12;1.17;;;1.08;;
11018;SDS011;5563;52.296;6.806;2023-07-20T11:43:46;1.27;;;1.05;;
11018;SDS011;5563;52.296;6.806;2023-07-20T11:46:13;1.45;;;1.13;;
11018;SDS011;5563;52.296;6.806;2023-07-20T11:48:55;1.27;;;1.17;;
11018;SDS011;5563;52.296;6.806;2023-07-20T11:51:23;1.20;;;1.00;;
11018;SDS011;5563;52.296;6.806;2023-07-20T11:53:57;1.02;;;1.00;;
11018;SDS011;5563;52.296;6.806;2023-07-20T11:56:31;2.60;;;1.30;;
11018;SDS011;5563;52.296;6.806;2023-07-20T11:59:04;0.98;;;0.98;;
11018;SDS011;5563;52.296;6.806;2023-07-20T12:01:39;1.50;;;1.40;;
11018;SDS011;5563;52.296;6.806;2023-07-20T12:04:06;2.78;;;1.48;;
11018;SDS011;5563;52.296;6.806;2023-07-20T12:06:40;2.28;;;1.42;;
11018;SDS011;5563;52.296;6.806;2023-07-20T12:09:20;1.50;;;1.20;;
11018;SDS011;5563;52.296;6.806;2023-07-20T12:11:48;1.25;;;1.15;;
11018;SDS011;5563;52.296;6.806;2023-07-20T12:14:16;2.90;;;1.60;;
11018;SDS011;5563;52.296;6.806;2023-07-20T12:16:53;2.28;;;2.08;;
11018;SDS011;5563;52.296;6.806;2023-07-20T12:19:24;11.25;;;10.15;;
11018;SDS011;5563;52.296;6.806;2023-07-20T12:21:58;1.90;;;1.55;;
11018;SDS011;5563;52.296;6.806;2023-07-20T12:24:28;1.52;;;1.27;;
11018;SDS011;5563;52.296;6.806;2023-07-20T12:27:02;1.00;;;1.00;;
11018;SDS011;5563;52.296;6.806;2023-07-20T12:29:30;1.40;;;1.15;;
11018;SDS011;5563;52.296;6.806;2023-07-20T12:32:05;1.23;;;1.13;;
11018;SDS011;5563;52.296;6.806;2023-07-20T12:34:32;1.98;;;1.30;;
11018;SDS011;5563;52.296;6.806;2023-07-20T12:37:06;1.52;;;1.20;;
11018;SDS011;5563;52.296;6.806;2023-07-20T12:39:36;1.88;;;1.40;;
11018;SDS011;5563;52.296;6.806;2023-07-20T12:42:09;1.73;;;1.35;;
11018;SDS011;5563;52.296;6.806;2023-07-20T12:44:36;1.73;;;1.15;;
11018;SDS011;5563;52.296;6.806;2023-07-20T12:47:09;2.75;;;1.10;;
11018;SDS011;5563;52.296;6.806;2023-07-20T12:49:36;1.20;;;1.10;;
11018;SDS011;5563;52.296;6.806;2023-07-20T12:52:09;1.30;;;1.20;;
11018;SDS011;5563;52.296;6.806;2023-07-20T12:54:36;1.08;;;1.08;;
11018;SDS011;5563;52.296;6.806;2023-07-20T12:57:09;2.33;;;1.20;;
11018;SDS011;5563;52.296;6.806;2023-07-20T12:59:43;1.20;;;1.10;;
11018;SDS011;5563;52.296;6.806;2023-07-20T13:02:16;5.40;;;4.90;;
11018;SDS011;5563;52.296;6.806;2023-07-20T13:04:55;18.75;;;16.85;;
11018;SDS011;5563;52.296;6.806;2023-07-20T13:07:36;1.30;;;1.20;;
11018;SDS011;5563;52.296;6.806;2023-07-20T13:10:15;1.30;;;1.20;;
11018;SDS011;5563;52.296;6.806;2023-07-20T13:12:49;1.58;;;1.30;;
11018;SDS011;5563;52.296;6.806;2023-07-20T13:15:24;1.98;;;1.10;;
11018;SDS011;5563;52.296;6.806;2023-07-20T13:18:02;1.75;;;1.20;;
11018;SDS011;5563;52.296;6.806;2023-07-20T13:20:36;4.32;;;1.20;;
11018;SDS011;5563;52.296;6.806;2023-07-20T13:23:03;1.55;;;1.20;;
11018;SDS011;5563;52.296;6.806;2023-07-20T13:25:37;1.05;;;0.95;;
11018;SDS011;5563;52.296;6.806;2023-07-20T13:28:04;2.30;;;1.38;;
11018;SDS011;5563;52.296;6.806;2023-07-20T13:30:38;1.10;;;1.10;;
11018;SDS011;5563;52.296;6.806;2023-07-20T13:33:06;1.15;;;1.10;;
11018;SDS011;5563;52.296;6.806;2023-07-20T13:35:44;2.38;;;0.90;;
11018;SDS011;5563;52.296;6.806;2023-07-20T13:38:13;1.30;;;1.05;;
11018;SDS011;5563;52.296;6.806;2023-07-20T13:40:47;1.90;;;1.00;;
11018;SDS011;5563;52.296;6.806;2023-07-20T13:43:21;1.20;;;1.00;;
11018;SDS011;5563;52.296;6.806;2023-07-20T13:45:54;1.20;;;1.10;;
11018;SDS011;5563;52.296;6.806;2023-07-20T13:48:21;1.30;;;1.20;;
11018;SDS011;5563;52.296;6.806;2023-07-20T13:50:56;1.95;;;1.30;;
11018;SDS011;5563;52.296;6.806;2023-07-20T13:53:26;1.23;;;1.05;;
11018;SDS011;5563;52.296;6.806;2023-07-20T13:56:04;2.05;;;1.08;;
11018;SDS011;5563;52.296;6.806;2023-07-20T13:58:34;1.50;;;1.20;;
11018;SDS011;5563;52.296;6.806;2023-07-20T14:01:08;12.95;;;11.65;;
11018;SDS011;5563;52.296;6.806;2023-07-20T14:03:55;8.55;;;7.65;;
11018;SDS011;5563;52.296;6.806;2023-07-20T14:06:22;3.10;;;1.90;;
11018;SDS011;5563;52.296;6.806;2023-07-20T14:09:03;2.20;;;2.00;;
11018;SDS011;5563;52.296;6.806;2023-07-20T14:11:37;4.68;;;3.25;;
11018;SDS011;5563;52.296;6.806;2023-07-20T14:14:13;1.50;;;1.40;;
11018;SDS011;5563;52.296;6.806;2023-07-20T14:16:40;2.13;;;2.03;;
11018;SDS011;5563;52.296;6.806;2023-07-20T14:19:13;1.20;;;1.10;;
11018;SDS011;5563;52.296;6.806;2023-07-20T14:21:40;2.58;;;1.40;;
11018;SDS011;5563;52.296;6.806;2023-07-20T14:24:15;1.40;;;1.30;;
11018;SDS011;5563;52.296;6.806;2023-07-20T14:26:44;1.40;;;1.30;;
11018;SDS011;5563;52.296;6.806;2023-07-20T14:29:19;1.20;;;1.15;;
11018;SDS011;5563;52.296;6.806;2023-07-20T14:31:46;1.20;;;1.10;;
11018;SDS011;5563;52.296;6.806;2023-07-20T14:34:23;1.30;;;1.20;;
11018;SDS011;5563;52.296;6.806;2023-07-20T14:36:50;1.98;;;1.38;;
11018;SDS011;5563;52.296;6.806;2023-07-20T14:39:23;1.15;;;1.05;;
11018;SDS011;5563;52.296;6.806;2023-07-20T14:41:50;1.05;;;1.00;;
11018;SDS011;5563;52.296;6.806;2023-07-20T14:44:24;1.10;;;1.00;;
11018;SDS011;5563;52.296;6.806;2023-07-20T14:46:51;1.40;;;1.30;;
11018;SDS011;5563;52.296;6.806;2023-07-20T14:49:40;2.13;;;1.20;;
11018;SDS011;5563;52.296;6.806;2023-07-20T14:52:07;1.80;;;1.10;;
11018;SDS011;5563;52.296;6.806;2023-07-20T14:54:42;2.20;;;1.10;;
11018;SDS011;5563;52.296;6.806;2023-07-20T14:57:09;0.85;;;0.85;;
11018;SDS011;5563;52.296;6.806;2023-07-20T14:59:47;1.23;;;1.13;;
11018;SDS011;5563;52.296;6.806;2023-07-20T15:02:14;1.13;;;1.00;;
11018;SDS011;5563;52.296;6.806;2023-07-20T15:04:50;1.85;;;1.20;;
11018;SDS011;5563;52.296;6.806;2023-07-20T15:07:24;1.55;;;1.40;;
11018;SDS011;5563;52.296;6.806;2023-07-20T15:09:57;1.10;;;1.00;;
11018;SDS011;5563;52.296;6.806;2023-07-20T15:12:31;2.92;;;1.00;;
11018;SDS011;5563;52.296;6.806;2023-07-20T15:15:16;1.35;;;1.25;;
11018;SDS011;5563;52.296;6.806;2023-07-20T15:17:50;1.30;;;1.10;;
11018;SDS011;5563;52.296;6.806;2023-07-20T15:20:17;1.52;;;1.13;;
11018;SDS011;5563;52.296;6.806;2023-07-20T15:22:51;2.40;;;1.80;;
11018;SDS011;5563;52.296;6.806;2023-07-20T15:25:18;2.40;;;1.90;;
11018;SDS011;5563;52.296;6.806;2023-07-20T15:27:51;1.38;;;1.25;;
11018;SDS011;5563;52.296;6.806;2023-07-20T15:30:24;1.08;;;1.08;;
11018;SDS011;5563;52.296;6.806;2023-07-20T15:33:00;1.30;;;1.20;;
11018;SDS011;5563;52.296;6.806;2023-07-20T15:35:29;1.50;;;1.10;;
11018;SDS011;5563;52.296;6.806;2023-07-20T15:38:03;1.40;;;1.17;;
11018;SDS011;5563;52.296;6.806;2023-07-20T15:40:36;1.30;;;1.20;;
11018;SDS011;5563;52.296;6.806;2023-07-20T15:43:03;2.15;;;1.30;;
11018;SDS011;5563;52.296;6.806;2023-07-20T15:45:39;1.75;;;1.50;;
11018;SDS011;5563;52.296;6.806;2023-07-20T15:48:06;1.40;;;1.30;;
11018;SDS011;5563;52.296;6.806;2023-07-20T15:50:40;1.83;;;1.50;;
11018;SDS011;5563;52.296;6.806;2023-07-20T15:53:07;1.67;;;1.40;;
11018;SDS011;5563;52.296;6.806;2023-07-20T15:55:40;1.58;;;1.48;;
11018;SDS011;5563;52.296;6.806;2023-07-20T15:58:07;1.70;;;1.40;;
11018;SDS011;5563;52.296;6.806;2023-07-20T16:00:40;1.73;;;1.63;;
11018;SDS011;5563;52.296;6.806;2023-07-20T16:03:13;3.50;;;2.70;;